sensor_id;sensor_type;location;lat;lon;timestamp;P1;durP1;ratioP1;P2;durP2;ratioP2
15500;SDS011;7852;52.228;5.990;2023-03-01T01:58:07;3.4;;;2;;
15500;SDS011;7852;52.228;5.990;2023-03-01T01:59:09;5.2;;;2.9;;
15500;SDS011;7852;52.228;5.990;2023-03-01T02:00:12;6.8;;;3.7;;
15500;SDS011;7852;52.228;5.990;2023-03-01T02:01:12;3.5;;;2.9;;
15500;SDS011;7852;52.228;5.990;2023-03-01T02:02:18;5.8;;;3.3;;
15500;SDS011;7852;52.228;5.990;2023-03-01T02:03:19;8.5;;;3.6;;
15500;SDS011;7852;52.228;5.990;2023-03-01T02:04:24;7.9;;;3.2;;
15500;SDS011;7852;52.228;5.990;2023-03-01T02:05:26;9.2;;;4.1;;
15500;SDS011;7852;52.228;5.990;2023-03-01T02:06:28;8.7;;;4.4;;
15500;SDS011;7852;52.228;5.990;2023-03-01T02:07:35;11.6;;;4.7;;
15500;SDS011;7852;52.228;5.990;2023-03-01T02:08:36;7.3;;;3.4;;
15500;SDS011;7852;52.228;5.990;2023-03-01T02:09:42;6.2;;;4.3;;
15500;SDS011;7852;52.228;5.990;2023-03-01T02:10:44;7.1;;;3.9;;
15500;SDS011;7852;52.228;5.990;2023-03-01T02:11:40;4;;;3.6;;
15500;SDS011;7852;52.228;5.990;2023-03-01T02:12:44;6.7;;;3.8;;
15500;SDS011;7852;52.228;5.990;2023-03-01T02:13:43;4.4;;;3.1;;
15500;SDS011;7852;52.228;5.990;2023-03-01T02:14:51;4;;;2.9;;
15500;SDS011;7852;52.228;5.990;2023-03-01T02:15:50;4.3;;;3.7;;
15500;SDS011;7852;52.228;5.990;2023-03-01T02:16:51;4.3;;;3.3;;
15500;SDS011;7852;52.228;5.990;2023-03-01T02:17:50;3;;;2.7;;
15500;SDS011;7852;52.228;5.990;2023-03-01T02:19:54;5.8;;;2.9;;
15500;SDS011;7852;52.228;5.990;2023-03-01T02:21:12;2.7;;;2.1;;
15500;SDS011;7852;52.228;5.990;2023-03-01T02:21:52;2;;;1.9;;
15500;SDS011;7852;52.228;5.990;2023-03-01T02:22:52;3.4;;;2.8;;
15500;SDS011;7852;52.228;5.990;2023-03-01T02:23:53;5.3;;;2.4;;
15500;SDS011;7852;52.228;5.990;2023-03-01T02:24:57;2.9;;;2.4;;
15500;SDS011;7852;52.228;5.990;2023-03-01T02:25:54;4.9;;;3.2;;
15500;SDS011;7852;52.228;5.990;2023-03-01T02:26:57;3.4;;;2.5;;
15500;SDS011;7852;52.228;5.990;2023-03-01T02:28:02;3.6;;;2.1;;
15500;SDS011;7852;52.228;5.990;2023-03-01T02:29:00;3;;;2.7;;
15500;SDS011;7852;52.228;5.990;2023-03-01T02:30:00;3.2;;;2.4;;
15500;SDS011;7852;52.228;5.990;2023-03-01T02:31:00;2.7;;;2.2;;
15500;SDS011;7852;52.228;5.990;2023-03-01T02:32:02;4.6;;;2.9;;
15500;SDS011;7852;52.228;5.990;2023-03-01T02:33:02;2.1;;;1.9;;
15500;SDS011;7852;52.228;5.990;2023-03-01T02:34:04;3.8;;;2.5;;
15500;SDS011;7852;52.228;5.990;2023-03-01T02:35:01;4.6;;;3.2;;
15500;SDS011;7852;52.228;5.990;2023-03-01T02:36:01;2.3;;;2.1;;
15500;SDS011;7852;52.228;5.990;2023-03-01T02:37:04;3.2;;;2.5;;
15500;SDS011;7852;52.228;5.990;2023-03-01T02:38:03;3.2;;;2.2;;
15500;SDS011;7852;52.228;5.990;2023-03-01T02:39:03;2.4;;;2.2;;
15500;SDS011;7852;52.228;5.990;2023-03-01T02:40:08;2.9;;;2.6;;
15500;SDS011;7852;52.228;5.990;2023-03-01T02:41:05;3.1;;;2.3;;
15500;SDS011;7852;52.228;5.990;2023-03-01T02:42:06;2.2;;;2;;
15500;SDS011;7852;52.228;5.990;2023-03-01T02:43:09;2.2;;;2;;
15500;SDS011;7852;52.228;5.990;2023-03-01T02:44:07;4;;;2.5;;
15500;SDS011;7852;52.228;5.990;2023-03-01T02:45:09;4.1;;;2.8;;
15500;SDS011;7852;52.228;5.990;2023-03-01T02:46:08;6.5;;;2.3;;
15500;SDS011;7852;52.228;5.990;2023-03-01T02:47:07;3.2;;;2.2;;
15500;SDS011;7852;52.228;5.990;2023-03-01T02:48:07;3.6;;;2.7;;
15500;SDS011;7852;52.228;5.990;2023-03-01T02:49:16;2.7;;;2.2;;
15500;SDS011;7852;52.228;5.990;2023-03-01T02:50:18;4.3;;;2.4;;
15500;SDS011;7852;52.228;5.990;2023-03-01T02:51:10;2.6;;;2.1;;
15500;SDS011;7852;52.228;5.990;2023-03-01T02:52:17;3.4;;;2.5;;
15500;SDS011;7852;52.228;5.990;2023-03-01T02:53:11;2;;;1.9;;
15500;SDS011;7852;52.228;5.990;2023-03-01T02:54:13;3.1;;;2.4;;
15500;SDS011;7852;52.228;5.990;2023-03-01T02:55:12;2.5;;;2.3;;
15500;SDS011;7852;52.228;5.990;2023-03-01T02:56:13;2.8;;;2.4;;
15500;SDS011;7852;52.228;5.990;2023-03-01T03:00:15;3.8;;;2.2;;
15500;SDS011;7852;52.228;5.990;2023-03-01T03:03:20;3.7;;;2.5;;
15500;SDS011;7852;52.228;5.990;2023-03-01T03:56:19;3.4;;;2.1;;
15500;SDS011;7852;52.228;5.990;2023-03-01T03:57:19;3.3;;;2.5;;
15500;SDS011;7852;52.228;5.990;2023-03-01T03:58:20;18;;;2.9;;
15500;SDS011;7852;52.228;5.990;2023-03-01T03:59:20;5.1;;;2.8;;
15500;SDS011;7852;52.228;5.990;2023-03-01T04:00:21;2;;;1.9;;
15500;SDS011;7852;52.228;5.990;2023-03-01T04:01:25;2.8;;;2.6;;
15500;SDS011;7852;52.228;5.990;2023-03-01T04:02:20;2;;;1.6;;
15500;SDS011;7852;52.228;5.990;2023-03-01T04:03:20;2.6;;;2.3;;
15500;SDS011;7852;52.228;5.990;2023-03-01T04:04:20;3.2;;;1.8;;
15500;SDS011;7852;52.228;5.990;2023-03-01T04:05:20;4.7;;;2.2;;
15500;SDS011;7852;52.228;5.990;2023-03-01T04:06:20;3.5;;;2.1;;
15500;SDS011;7852;52.228;5.990;2023-03-01T04:07:20;3.5;;;2.5;;
15500;SDS011;7852;52.228;5.990;2023-03-01T04:08:20;4.2;;;1.9;;
15500;SDS011;7852;52.228;5.990;2023-03-01T04:09:20;6.5;;;2.5;;
15500;SDS011;7852;52.228;5.990;2023-03-01T04:10:20;3.3;;;2.2;;
15500;SDS011;7852;52.228;5.990;2023-03-01T04:11:20;2.9;;;2.4;;
15500;SDS011;7852;52.228;5.990;2023-03-01T04:12:20;5.3;;;3.1;;
15500;SDS011;7852;52.228;5.990;2023-03-01T04:13:20;3.1;;;2.2;;
15500;SDS011;7852;52.228;5.990;2023-03-01T04:15:20;3.6;;;2.3;;
15500;SDS011;7852;52.228;5.990;2023-03-01T04:16:20;4.4;;;3;;
15500;SDS011;7852;52.228;5.990;2023-03-01T04:17:20;2.9;;;2.4;;
15500;SDS011;7852;52.228;5.990;2023-03-01T04:18:21;3;;;2.8;;
15500;SDS011;7852;52.228;5.990;2023-03-01T04:19:20;2.3;;;2.1;;
15500;SDS011;7852;52.228;5.990;2023-03-01T04:20:24;2.7;;;2.4;;
15500;SDS011;7852;52.228;5.990;2023-03-01T04:21:22;1.9;;;1.7;;
15500;SDS011;7852;52.228;5.990;2023-03-01T04:22:21;3.5;;;2.2;;
15500;SDS011;7852;52.228;5.990;2023-03-01T04:23:22;5.6;;;2.6;;
15500;SDS011;7852;52.228;5.990;2023-03-01T04:24:22;2.7;;;2.4;;
15500;SDS011;7852;52.228;5.990;2023-03-01T04:25:22;2.7;;;2.3;;
15500;SDS011;7852;52.228;5.990;2023-03-01T04:26:22;2.2;;;1.7;;
15500;SDS011;7852;52.228;5.990;2023-03-01T04:28:22;3.6;;;2.1;;
15500;SDS011;7852;52.228;5.990;2023-03-01T04:29:22;2.4;;;2.2;;
15500;SDS011;7852;52.228;5.990;2023-03-01T04:30:22;1.8;;;1.7;;
15500;SDS011;7852;52.228;5.990;2023-03-01T04:31:22;2.5;;;1.8;;
15500;SDS011;7852;52.228;5.990;2023-03-01T04:32:22;3.8;;;2.2;;
15500;SDS011;7852;52.228;5.990;2023-03-01T04:33:22;4.7;;;2.2;;
15500;SDS011;7852;52.228;5.990;2023-03-01T04:34:22;2.7;;;2.2;;
15500;SDS011;7852;52.228;5.990;2023-03-01T04:35:22;3.8;;;2.3;;
15500;SDS011;7852;52.228;5.990;2023-03-01T04:36:22;3.7;;;2.4;;
15500;SDS011;7852;52.228;5.990;2023-03-01T04:37:22;2;;;1.8;;
15500;SDS011;7852;52.228;5.990;2023-03-01T04:38:22;4.2;;;2.4;;
15500;SDS011;7852;52.228;5.990;2023-03-01T04:39:22;2.7;;;2.5;;
15500;SDS011;7852;52.228;5.990;2023-03-01T04:40:22;3.2;;;2.3;;
15500;SDS011;7852;52.228;5.990;2023-03-01T04:41:23;4.1;;;2.5;;
15500;SDS011;7852;52.228;5.990;2023-03-01T04:42:22;2.9;;;1.9;;
15500;SDS011;7852;52.228;5.990;2023-03-01T04:43:22;1.6;;;1.5;;
15500;SDS011;7852;52.228;5.990;2023-03-01T04:44:22;2.5;;;2;;
15500;SDS011;7852;52.228;5.990;2023-03-01T04:45:22;2.3;;;2.1;;
15500;SDS011;7852;52.228;5.990;2023-03-01T04:46:23;4.2;;;3;;
15500;SDS011;7852;52.228;5.990;2023-03-01T04:47:22;2.8;;;2.2;;
15500;SDS011;7852;52.228;5.990;2023-03-01T04:48:22;2;;;1.8;;
15500;SDS011;7852;52.228;5.990;2023-03-01T04:49:22;4.1;;;2.7;;
15500;SDS011;7852;52.228;5.990;2023-03-01T04:50:22;2.1;;;1.9;;
15500;SDS011;7852;52.228;5.990;2023-03-01T04:52:23;2.1;;;1.9;;
15500;SDS011;7852;52.228;5.990;2023-03-01T04:53:22;3.7;;;2.1;;
15500;SDS011;7852;52.228;5.990;2023-03-01T04:54:23;4.3;;;2.4;;
15500;SDS011;7852;52.228;5.990;2023-03-01T04:55:23;2.5;;;2;;
15500;SDS011;7852;52.228;5.990;2023-03-01T05:00:31;3.9;;;2.6;;
15500;SDS011;7852;52.228;5.990;2023-03-01T05:23:31;5.3;;;3.9;;
15500;SDS011;7852;52.228;5.990;2023-03-01T05:24:34;7.4;;;3.7;;
15500;SDS011;7852;52.228;5.990;2023-03-01T05:25:32;3.1;;;2.8;;
15500;SDS011;7852;52.228;5.990;2023-03-01T05:26:32;3.7;;;3.3;;
15500;SDS011;7852;52.228;5.990;2023-03-01T05:27:32;5.1;;;3;;
15500;SDS011;7852;52.228;5.990;2023-03-01T05:28:33;5.9;;;2.7;;
15500;SDS011;7852;52.228;5.990;2023-03-01T05:29:32;3.7;;;2.5;;
15500;SDS011;7852;52.228;5.990;2023-03-01T05:30:32;3.6;;;2.7;;
15500;SDS011;7852;52.228;5.990;2023-03-01T05:31:32;4.4;;;3;;
15500;SDS011;7852;52.228;5.990;2023-03-01T05:34:35;7.7;;;3.5;;
15500;SDS011;7852;52.228;5.990;2023-03-01T05:38:35;7.3;;;3.4;;
15500;SDS011;7852;52.228;5.990;2023-03-01T05:39:35;4;;;3;;
15500;SDS011;7852;52.228;5.990;2023-03-01T05:40:35;4.2;;;3.8;;
15500;SDS011;7852;52.228;5.990;2023-03-01T05:43:34;5.8;;;2.8;;
15500;SDS011;7852;52.228;5.990;2023-03-01T05:45:35;5.3;;;3.4;;
15500;SDS011;7852;52.228;5.990;2023-03-01T05:46:35;4.6;;;3.1;;
15500;SDS011;7852;52.228;5.990;2023-03-01T05:47:35;5.8;;;3.3;;
15500;SDS011;7852;52.228;5.990;2023-03-01T05:49:34;5.8;;;4.3;;
15500;SDS011;7852;52.228;5.990;2023-03-01T05:50:35;4.6;;;3.6;;
15500;SDS011;7852;52.228;5.990;2023-03-01T05:51:34;6.3;;;3.4;;
15500;SDS011;7852;52.228;5.990;2023-03-01T05:52:35;5.3;;;3.3;;
15500;SDS011;7852;52.228;5.990;2023-03-01T05:53:35;4.2;;;3.3;;
15500;SDS011;7852;52.228;5.990;2023-03-01T05:54:40;5.3;;;3.1;;
15500;SDS011;7852;52.228;5.990;2023-03-01T05:58:36;3.7;;;3.2;;
15500;SDS011;7852;52.228;5.990;2023-03-01T05:59:36;6.5;;;5.1;;
15500;SDS011;7852;52.228;5.990;2023-03-01T06:00:36;4.7;;;4.3;;
15500;SDS011;7852;52.228;5.990;2023-03-01T06:01:36;4.9;;;4.4;;
15500;SDS011;7852;52.228;5.990;2023-03-01T06:03:36;7;;;4.7;;
15500;SDS011;7852;52.228;5.990;2023-03-01T06:04:37;8.6;;;6.2;;
15500;SDS011;7852;52.228;5.990;2023-03-01T06:05:37;8.2;;;5.8;;
15500;SDS011;7852;52.228;5.990;2023-03-01T06:06:37;6.1;;;4.9;;
15500;SDS011;7852;52.228;5.990;2023-03-01T06:07:37;6.7;;;4.8;;
15500;SDS011;7852;52.228;5.990;2023-03-01T06:08:37;6.3;;;4.8;;
15500;SDS011;7852;52.228;5.990;2023-03-01T06:09:37;6.3;;;4.5;;
15500;SDS011;7852;52.228;5.990;2023-03-01T06:13:37;5.8;;;3.8;;
15500;SDS011;7852;52.228;5.990;2023-03-01T06:14:37;4.6;;;4.1;;
15500;SDS011;7852;52.228;5.990;2023-03-01T06:15:37;8.7;;;5;;
15500;SDS011;7852;52.228;5.990;2023-03-01T06:16:37;8.8;;;4.6;;
15500;SDS011;7852;52.228;5.990;2023-03-01T06:17:38;7.7;;;4.9;;
15500;SDS011;7852;52.228;5.990;2023-03-01T06:18:37;7.5;;;3.6;;
15500;SDS011;7852;52.228;5.990;2023-03-01T06:19:37;5.5;;;3.2;;
15500;SDS011;7852;52.228;5.990;2023-03-01T06:20:37;6.3;;;5;;
15500;SDS011;7852;52.228;5.990;2023-03-01T06:21:37;4.6;;;3.2;;
15500;SDS011;7852;52.228;5.990;2023-03-01T06:22:37;6.2;;;4.4;;
15500;SDS011;7852;52.228;5.990;2023-03-01T06:23:37;7.7;;;4.8;;
15500;SDS011;7852;52.228;5.990;2023-03-01T06:24:37;9.8;;;5.3;;
15500;SDS011;7852;52.228;5.990;2023-03-01T06:25:37;10.4;;;6.1;;
15500;SDS011;7852;52.228;5.990;2023-03-01T06:26:37;12.1;;;6;;
15500;SDS011;7852;52.228;5.990;2023-03-01T06:27:37;7.6;;;5.3;;
15500;SDS011;7852;52.228;5.990;2023-03-01T06:28:37;5.3;;;4.8;;
15500;SDS011;7852;52.228;5.990;2023-03-01T06:29:37;5.5;;;4.9;;
15500;SDS011;7852;52.228;5.990;2023-03-01T06:30:37;10.3;;;6.3;;
15500;SDS011;7852;52.228;5.990;2023-03-01T06:31:38;5.7;;;5.1;;
15500;SDS011;7852;52.228;5.990;2023-03-01T06:32:38;7.1;;;5.7;;
15500;SDS011;7852;52.228;5.990;2023-03-01T06:33:38;6.9;;;5.8;;
15500;SDS011;7852;52.228;5.990;2023-03-01T06:34:38;5.3;;;4.3;;
15500;SDS011;7852;52.228;5.990;2023-03-01T06:35:38;9.9;;;6.6;;
15500;SDS011;7852;52.228;5.990;2023-03-01T06:36:37;12.7;;;7.2;;
15500;SDS011;7852;52.228;5.990;2023-03-01T06:37:38;9.6;;;6.8;;
15500;SDS011;7852;52.228;5.990;2023-03-01T06:38:38;12.8;;;6;;
15500;SDS011;7852;52.228;5.990;2023-03-01T06:39:38;7.6;;;5.5;;
15500;SDS011;7852;52.228;5.990;2023-03-01T06:40:38;10.9;;;6.3;;
15500;SDS011;7852;52.228;5.990;2023-03-01T06:41:38;6.9;;;6;;
15500;SDS011;7852;52.228;5.990;2023-03-01T06:42:38;9.2;;;6.4;;
15500;SDS011;7852;52.228;5.990;2023-03-01T06:43:39;10.6;;;6.7;;
15500;SDS011;7852;52.228;5.990;2023-03-01T06:44:38;9.4;;;6.6;;
15500;SDS011;7852;52.228;5.990;2023-03-01T06:45:38;9.7;;;5.8;;
15500;SDS011;7852;52.228;5.990;2023-03-01T06:46:38;9;;;5.9;;
15500;SDS011;7852;52.228;5.990;2023-03-01T06:47:38;12.8;;;6.6;;
15500;SDS011;7852;52.228;5.990;2023-03-01T06:48:38;10.5;;;7;;
15500;SDS011;7852;52.228;5.990;2023-03-01T06:49:38;9;;;5.3;;
15500;SDS011;7852;52.228;5.990;2023-03-01T06:50:38;11.3;;;6.5;;
15500;SDS011;7852;52.228;5.990;2023-03-01T06:51:38;8.3;;;5.3;;
15500;SDS011;7852;52.228;5.990;2023-03-01T06:52:38;8.7;;;5.9;;
15500;SDS011;7852;52.228;5.990;2023-03-01T06:53:38;5.5;;;4.5;;
15500;SDS011;7852;52.228;5.990;2023-03-01T06:54:38;7.7;;;4.5;;
15500;SDS011;7852;52.228;5.990;2023-03-01T06:55:38;6.3;;;4.5;;
15500;SDS011;7852;52.228;5.990;2023-03-01T06:56:38;7.8;;;4.8;;
15500;SDS011;7852;52.228;5.990;2023-03-01T06:57:38;9.7;;;5.6;;
15500;SDS011;7852;52.228;5.990;2023-03-01T06:58:38;10.7;;;4.3;;
15500;SDS011;7852;52.228;5.990;2023-03-01T06:59:38;6.8;;;4.4;;
15500;SDS011;7852;52.228;5.990;2023-03-01T07:00:38;7.1;;;5;;
15500;SDS011;7852;52.228;5.990;2023-03-01T07:01:38;7.7;;;4.5;;
15500;SDS011;7852;52.228;5.990;2023-03-01T07:02:38;6.7;;;4.3;;
15500;SDS011;7852;52.228;5.990;2023-03-01T07:03:38;5.8;;;4.5;;
15500;SDS011;7852;52.228;5.990;2023-03-01T07:04:39;6.3;;;4;;
15500;SDS011;7852;52.228;5.990;2023-03-01T07:05:39;4.4;;;4;;
15500;SDS011;7852;52.228;5.990;2023-03-01T07:06:39;5;;;4.2;;
15500;SDS011;7852;52.228;5.990;2023-03-01T07:07:39;5.5;;;3.8;;
15500;SDS011;7852;52.228;5.990;2023-03-01T07:08:39;7.2;;;4.7;;
15500;SDS011;7852;52.228;5.990;2023-03-01T07:09:39;9.6;;;4.4;;
15500;SDS011;7852;52.228;5.990;2023-03-01T07:10:39;6.7;;;3.9;;
15500;SDS011;7852;52.228;5.990;2023-03-01T07:11:40;8.5;;;4.9;;
15500;SDS011;7852;52.228;5.990;2023-03-01T07:12:39;8.2;;;5.1;;
15500;SDS011;7852;52.228;5.990;2023-03-01T07:13:39;6.4;;;4.6;;
15500;SDS011;7852;52.228;5.990;2023-03-01T07:14:39;7.3;;;4.6;;
15500;SDS011;7852;52.228;5.990;2023-03-01T07:15:39;7.8;;;4.4;;
15500;SDS011;7852;52.228;5.990;2023-03-01T07:16:39;5.3;;;4.3;;
15500;SDS011;7852;52.228;5.990;2023-03-01T07:17:39;7.1;;;4.2;;
15500;SDS011;7852;52.228;5.990;2023-03-01T07:18:39;7.4;;;5.6;;
15500;SDS011;7852;52.228;5.990;2023-03-01T07:19:39;6.2;;;4.5;;
15500;SDS011;7852;52.228;5.990;2023-03-01T07:20:39;6.1;;;5;;
15500;SDS011;7852;52.228;5.990;2023-03-01T07:21:39;4.9;;;4;;
15500;SDS011;7852;52.228;5.990;2023-03-01T07:22:39;5.7;;;4.8;;
15500;SDS011;7852;52.228;5.990;2023-03-01T07:23:39;6.9;;;5.8;;
15500;SDS011;7852;52.228;5.990;2023-03-01T07:24:39;10.5;;;6.2;;
15500;SDS011;7852;52.228;5.990;2023-03-01T07:25:39;13.1;;;5.5;;
15500;SDS011;7852;52.228;5.990;2023-03-01T07:26:39;6.2;;;5.4;;
15500;SDS011;7852;52.228;5.990;2023-03-01T07:27:39;10.6;;;5.8;;
15500;SDS011;7852;52.228;5.990;2023-03-01T07:28:39;16.3;;;5.9;;
15500;SDS011;7852;52.228;5.990;2023-03-01T07:29:39;10.3;;;5.8;;
15500;SDS011;7852;52.228;5.990;2023-03-01T07:30:39;8.9;;;5.6;;
15500;SDS011;7852;52.228;5.990;2023-03-01T07:31:39;9.5;;;6.1;;
15500;SDS011;7852;52.228;5.990;2023-03-01T07:32:39;8.4;;;5.5;;
15500;SDS011;7852;52.228;5.990;2023-03-01T07:33:39;13.4;;;7.1;;
15500;SDS011;7852;52.228;5.990;2023-03-01T07:34:39;7.3;;;5.8;;
15500;SDS011;7852;52.228;5.990;2023-03-01T07:35:39;9.9;;;6.5;;
15500;SDS011;7852;52.228;5.990;2023-03-01T07:36:39;15.5;;;8.5;;
15500;SDS011;7852;52.228;5.990;2023-03-01T07:37:39;8.5;;;6.3;;
15500;SDS011;7852;52.228;5.990;2023-03-01T07:38:39;12.1;;;7;;
15500;SDS011;7852;52.228;5.990;2023-03-01T07:39:39;15;;;7.8;;
15500;SDS011;7852;52.228;5.990;2023-03-01T07:40:39;9.5;;;7.1;;
15500;SDS011;7852;52.228;5.990;2023-03-01T07:41:39;13;;;7.8;;
15500;SDS011;7852;52.228;5.990;2023-03-01T07:42:39;10.5;;;6.6;;
15500;SDS011;7852;52.228;5.990;2023-03-01T07:43:39;10;;;7.5;;
15500;SDS011;7852;52.228;5.990;2023-03-01T07:44:39;9.5;;;6.5;;
15500;SDS011;7852;52.228;5.990;2023-03-01T07:45:39;11.5;;;7.8;;
15500;SDS011;7852;52.228;5.990;2023-03-01T07:46:39;9.7;;;7.3;;
15500;SDS011;7852;52.228;5.990;2023-03-01T07:47:39;10;;;6.8;;
15500;SDS011;7852;52.228;5.990;2023-03-01T07:48:39;10.3;;;6.4;;
15500;SDS011;7852;52.228;5.990;2023-03-01T07:49:39;10.8;;;7.7;;
15500;SDS011;7852;52.228;5.990;2023-03-01T07:50:39;9.8;;;6.6;;
15500;SDS011;7852;52.228;5.990;2023-03-01T07:51:39;8.7;;;7.5;;
15500;SDS011;7852;52.228;5.990;2023-03-01T07:52:39;9.7;;;6.3;;
15500;SDS011;7852;52.228;5.990;2023-03-01T07:53:39;11.6;;;7.1;;
15500;SDS011;7852;52.228;5.990;2023-03-01T07:54:39;13.8;;;6.8;;
15500;SDS011;7852;52.228;5.990;2023-03-01T07:55:39;10.6;;;6.8;;
15500;SDS011;7852;52.228;5.990;2023-03-01T07:56:39;7.9;;;6.1;;
15500;SDS011;7852;52.228;5.990;2023-03-01T07:57:39;11.2;;;7;;
15500;SDS011;7852;52.228;5.990;2023-03-01T07:58:40;10.6;;;6.6;;
15500;SDS011;7852;52.228;5.990;2023-03-01T08:00:39;8.7;;;5.9;;
15500;SDS011;7852;52.228;5.990;2023-03-01T08:06:39;10;;;7;;
15500;SDS011;7852;52.228;5.990;2023-03-01T08:07:39;12.6;;;7.6;;
15500;SDS011;7852;52.228;5.990;2023-03-01T08:08:39;8.8;;;6.8;;
15500;SDS011;7852;52.228;5.990;2023-03-01T08:09:39;10.2;;;7.1;;
15500;SDS011;7852;52.228;5.990;2023-03-01T08:10:39;12.6;;;7.4;;
15500;SDS011;7852;52.228;5.990;2023-03-01T08:11:39;12;;;7.8;;
15500;SDS011;7852;52.228;5.990;2023-03-01T08:12:39;8.7;;;6.7;;
15500;SDS011;7852;52.228;5.990;2023-03-01T08:13:39;11.4;;;7.5;;
15500;SDS011;7852;52.228;5.990;2023-03-01T08:14:39;8.8;;;7.3;;
15500;SDS011;7852;52.228;5.990;2023-03-01T08:15:39;10.3;;;7.7;;
15500;SDS011;7852;52.228;5.990;2023-03-01T08:16:39;11.5;;;7.3;;
15500;SDS011;7852;52.228;5.990;2023-03-01T08:17:39;12.3;;;7.4;;
15500;SDS011;7852;52.228;5.990;2023-03-01T08:18:39;10.7;;;7.3;;
15500;SDS011;7852;52.228;5.990;2023-03-01T08:19:39;9.3;;;6.2;;
15500;SDS011;7852;52.228;5.990;2023-03-01T08:20:39;9.6;;;7.1;;
15500;SDS011;7852;52.228;5.990;2023-03-01T08:21:39;8.5;;;6.7;;
15500;SDS011;7852;52.228;5.990;2023-03-01T08:22:39;7.8;;;6;;
15500;SDS011;7852;52.228;5.990;2023-03-01T08:23:39;13.4;;;7.2;;
15500;SDS011;7852;52.228;5.990;2023-03-01T08:24:39;9.7;;;6.5;;
15500;SDS011;7852;52.228;5.990;2023-03-01T08:25:39;11.8;;;8;;
15500;SDS011;7852;52.228;5.990;2023-03-01T08:26:39;9.7;;;7;;
15500;SDS011;7852;52.228;5.990;2023-03-01T08:27:39;7.5;;;6.2;;
15500;SDS011;7852;52.228;5.990;2023-03-01T08:28:39;8.9;;;7.2;;
15500;SDS011;7852;52.228;5.990;2023-03-01T08:29:39;11.4;;;7.2;;
15500;SDS011;7852;52.228;5.990;2023-03-01T08:30:39;10.3;;;6.8;;
15500;SDS011;7852;52.228;5.990;2023-03-01T08:31:39;9.1;;;6.5;;
15500;SDS011;7852;52.228;5.990;2023-03-01T08:32:39;10;;;7.6;;
15500;SDS011;7852;52.228;5.990;2023-03-01T08:33:39;9.4;;;6.2;;
15500;SDS011;7852;52.228;5.990;2023-03-01T08:34:39;8.4;;;7;;
15500;SDS011;7852;52.228;5.990;2023-03-01T08:35:39;9.3;;;6.4;;
15500;SDS011;7852;52.228;5.990;2023-03-01T08:36:39;6.4;;;4.4;;
15500;SDS011;7852;52.228;5.990;2023-03-01T08:37:39;9.5;;;5.3;;
15500;SDS011;7852;52.228;5.990;2023-03-01T08:38:39;4.6;;;3.7;;
15500;SDS011;7852;52.228;5.990;2023-03-01T08:39:39;8;;;6.1;;
15500;SDS011;7852;52.228;5.990;2023-03-01T08:40:39;3.8;;;3.3;;
15500;SDS011;7852;52.228;5.990;2023-03-01T08:41:39;5;;;4.5;;
15500;SDS011;7852;52.228;5.990;2023-03-01T08:42:40;7.3;;;3.7;;
15500;SDS011;7852;52.228;5.990;2023-03-01T08:43:39;6.7;;;4.3;;
15500;SDS011;7852;52.228;5.990;2023-03-01T08:44:39;9.1;;;6.7;;
15500;SDS011;7852;52.228;5.990;2023-03-01T08:45:39;10.9;;;6.7;;
15500;SDS011;7852;52.228;5.990;2023-03-01T08:46:39;9;;;6.7;;
15500;SDS011;7852;52.228;5.990;2023-03-01T08:47:40;8;;;6.7;;
15500;SDS011;7852;52.228;5.990;2023-03-01T08:48:40;6.8;;;4.9;;
15500;SDS011;7852;52.228;5.990;2023-03-01T08:49:40;8;;;5;;
15500;SDS011;7852;52.228;5.990;2023-03-01T08:50:40;4;;;2.8;;
15500;SDS011;7852;52.228;5.990;2023-03-01T08:51:40;3.8;;;3.4;;
15500;SDS011;7852;52.228;5.990;2023-03-01T08:52:40;9;;;6.7;;
15500;SDS011;7852;52.228;5.990;2023-03-01T08:53:40;8.8;;;5.7;;
15500;SDS011;7852;52.228;5.990;2023-03-01T08:54:40;7.1;;;6.3;;
15500;SDS011;7852;52.228;5.990;2023-03-01T08:55:40;4.9;;;3.5;;
15500;SDS011;7852;52.228;5.990;2023-03-01T08:56:40;8.7;;;6.7;;
15500;SDS011;7852;52.228;5.990;2023-03-01T08:57:40;7.6;;;6.2;;
15500;SDS011;7852;52.228;5.990;2023-03-01T08:58:40;4.7;;;3.9;;
15500;SDS011;7852;52.228;5.990;2023-03-01T08:59:40;9.3;;;6.5;;
15500;SDS011;7852;52.228;5.990;2023-03-01T09:00:40;9.8;;;6.5;;
15500;SDS011;7852;52.228;5.990;2023-03-01T09:01:40;8.8;;;6.5;;
15500;SDS011;7852;52.228;5.990;2023-03-01T09:02:40;8.3;;;6.5;;
15500;SDS011;7852;52.228;5.990;2023-03-01T09:03:40;7.4;;;5.9;;
15500;SDS011;7852;52.228;5.990;2023-03-01T09:04:40;7.7;;;6.1;;
15500;SDS011;7852;52.228;5.990;2023-03-01T09:05:40;9.8;;;6.8;;
15500;SDS011;7852;52.228;5.990;2023-03-01T09:06:40;7.7;;;5.7;;
15500;SDS011;7852;52.228;5.990;2023-03-01T09:07:40;9.7;;;5.9;;
15500;SDS011;7852;52.228;5.990;2023-03-01T09:08:40;7.4;;;5.9;;
15500;SDS011;7852;52.228;5.990;2023-03-01T09:09:40;11.4;;;7;;
15500;SDS011;7852;52.228;5.990;2023-03-01T09:10:40;10.8;;;5.6;;
15500;SDS011;7852;52.228;5.990;2023-03-01T09:11:40;8.2;;;6;;
15500;SDS011;7852;52.228;5.990;2023-03-01T09:12:40;9.2;;;6.1;;
15500;SDS011;7852;52.228;5.990;2023-03-01T09:13:40;6.7;;;5;;
15500;SDS011;7852;52.228;5.990;2023-03-01T09:14:40;7.2;;;5.7;;
15500;SDS011;7852;52.228;5.990;2023-03-01T09:15:40;9.6;;;5.7;;
15500;SDS011;7852;52.228;5.990;2023-03-01T09:16:40;8.3;;;5.3;;
15500;SDS011;7852;52.228;5.990;2023-03-01T09:17:40;9;;;6.2;;
15500;SDS011;7852;52.228;5.990;2023-03-01T09:18:41;5.5;;;4.6;;
15500;SDS011;7852;52.228;5.990;2023-03-01T09:19:41;8.2;;;5.9;;
15500;SDS011;7852;52.228;5.990;2023-03-01T09:20:41;8.8;;;6;;
15500;SDS011;7852;52.228;5.990;2023-03-01T09:21:41;7.8;;;5.2;;
15500;SDS011;7852;52.228;5.990;2023-03-01T09:22:41;6.7;;;5.4;;
15500;SDS011;7852;52.228;5.990;2023-03-01T09:23:41;6;;;4.6;;
15500;SDS011;7852;52.228;5.990;2023-03-01T09:24:41;7.7;;;5.5;;
15500;SDS011;7852;52.228;5.990;2023-03-01T09:25:42;7.5;;;4.7;;
15500;SDS011;7852;52.228;5.990;2023-03-01T09:26:41;5.9;;;4.9;;
15500;SDS011;7852;52.228;5.990;2023-03-01T09:27:42;4.3;;;3.2;;
15500;SDS011;7852;52.228;5.990;2023-03-01T09:28:41;7.8;;;5.9;;
15500;SDS011;7852;52.228;5.990;2023-03-01T09:29:41;8.9;;;4.6;;
15500;SDS011;7852;52.228;5.990;2023-03-01T09:30:41;6.1;;;4.5;;
15500;SDS011;7852;52.228;5.990;2023-03-01T09:31:41;9.3;;;6.2;;
15500;SDS011;7852;52.228;5.990;2023-03-01T09:32:41;7.8;;;5.4;;
15500;SDS011;7852;52.228;5.990;2023-03-01T09:33:41;5.1;;;4;;
15500;SDS011;7852;52.228;5.990;2023-03-01T09:34:41;7.3;;;5.6;;
15500;SDS011;7852;52.228;5.990;2023-03-01T09:35:41;8;;;5.2;;
15500;SDS011;7852;52.228;5.990;2023-03-01T09:36:41;6.8;;;4.9;;
15500;SDS011;7852;52.228;5.990;2023-03-01T09:37:41;6.2;;;4.1;;
15500;SDS011;7852;52.228;5.990;2023-03-01T09:38:41;6.6;;;4.6;;
15500;SDS011;7852;52.228;5.990;2023-03-01T09:39:41;8.2;;;5.4;;
15500;SDS011;7852;52.228;5.990;2023-03-01T09:40:42;6.4;;;5.3;;
15500;SDS011;7852;52.228;5.990;2023-03-01T09:41:43;7.8;;;5;;
15500;SDS011;7852;52.228;5.990;2023-03-01T09:42:45;7.5;;;5;;
15500;SDS011;7852;52.228;5.990;2023-03-01T09:43:42;6.1;;;4.5;;
15500;SDS011;7852;52.228;5.990;2023-03-01T09:44:42;2.7;;;2.2;;
15500;SDS011;7852;52.228;5.990;2023-03-01T09:45:41;4.4;;;3.7;;
15500;SDS011;7852;52.228;5.990;2023-03-01T09:46:41;6.4;;;4;;
15500;SDS011;7852;52.228;5.990;2023-03-01T09:47:41;3.9;;;3.2;;
15500;SDS011;7852;52.228;5.990;2023-03-01T09:48:41;7.4;;;4.9;;
15500;SDS011;7852;52.228;5.990;2023-03-01T09:49:41;5.3;;;4.8;;
15500;SDS011;7852;52.228;5.990;2023-03-01T09:50:41;2.4;;;2.2;;
15500;SDS011;7852;52.228;5.990;2023-03-01T09:51:41;3.2;;;2.6;;
15500;SDS011;7852;52.228;5.990;2023-03-01T09:52:41;4.7;;;3.1;;
15500;SDS011;7852;52.228;5.990;2023-03-01T09:53:42;4.3;;;3.3;;
15500;SDS011;7852;52.228;5.990;2023-03-01T09:54:42;7.2;;;4.7;;
15500;SDS011;7852;52.228;5.990;2023-03-01T09:55:43;11.8;;;4.7;;
15500;SDS011;7852;52.228;5.990;2023-03-01T09:56:44;6;;;4.1;;
15500;SDS011;7852;52.228;5.990;2023-03-01T09:57:44;5.2;;;4.1;;
15500;SDS011;7852;52.228;5.990;2023-03-01T09:58:45;8.4;;;5;;
15500;SDS011;7852;52.228;5.990;2023-03-01T09:59:45;6.1;;;4.7;;
15500;SDS011;7852;52.228;5.990;2023-03-01T10:00:42;2.2;;;1.8;;
15500;SDS011;7852;52.228;5.990;2023-03-01T10:01:43;4.2;;;3.4;;
15500;SDS011;7852;52.228;5.990;2023-03-01T10:02:43;2.2;;;2;;
15500;SDS011;7852;52.228;5.990;2023-03-01T10:03:43;5.4;;;4.1;;
15500;SDS011;7852;52.228;5.990;2023-03-01T10:04:44;4;;;1.9;;
15500;SDS011;7852;52.228;5.990;2023-03-01T10:05:44;2.7;;;2.1;;
15500;SDS011;7852;52.228;5.990;2023-03-01T10:06:43;5.5;;;3.4;;
15500;SDS011;7852;52.228;5.990;2023-03-01T10:07:43;8.5;;;4.6;;
15500;SDS011;7852;52.228;5.990;2023-03-01T10:08:42;4.8;;;2.9;;